createdAt,value
2018-12-30T02:51:50.256Z,27.57
2018-12-30T02:54:14.518Z,28.10
2018-12-30T02:56:42.350Z,26.30
2018-12-30T02:59:10.175Z,30.87
2018-12-30T03:01:38.052Z,34.77
2018-12-30T03:04:05.964Z,26.67
2018-12-30T03:06:33.880Z,26.80
2018-12-30T03:09:01.724Z,30.13
2018-12-30T03:11:29.603Z,29.43
2018-12-30T03:13:57.506Z,27.70
2018-12-30T03:16:25.389Z,28.73
2018-12-30T03:18:53.243Z,24.57
2018-12-30T03:21:21.102Z,24.50
2018-12-30T03:23:48.966Z,25.50
2018-12-30T03:26:16.850Z,26.60
2018-12-30T03:28:44.967Z,26.33
2018-12-30T03:31:12.892Z,25.10
2018-12-30T03:33:41.803Z,28.93
2018-12-30T03:36:09.649Z,25.67
2018-12-30T03:38:37.500Z,26.97
2018-12-30T03:41:05.344Z,26.20
2018-12-30T03:43:33.291Z,28.80
2018-12-30T03:46:01.167Z,28.87
2018-12-30T03:48:29.005Z,27.03
2018-12-30T03:50:56.873Z,25.60
2018-12-30T03:53:24.726Z,25.27
2018-12-30T03:55:52.674Z,29.30
2018-12-30T03:58:20.542Z,25.03
2018-12-30T04:00:48.376Z,26.27
2018-12-30T04:03:16.208Z,25.97
2018-12-30T04:05:44.133Z,23.47
2018-12-30T04:08:12.002Z,27.50
2018-12-30T04:10:39.872Z,25.30
2018-12-30T04:13:07.711Z,26.77
2018-12-30T04:15:35.580Z,23.40
2018-12-30T04:18:03.467Z,26.50
2018-12-30T04:20:31.314Z,23.03
2018-12-30T04:22:59.143Z,26.13
2018-12-30T04:25:27.006Z,27.97
2018-12-30T04:27:54.934Z,24.50
2018-12-30T04:30:22.803Z,27.27
2018-12-30T04:32:50.679Z,26.20
2018-12-30T04:35:18.524Z,24.70
2018-12-30T04:37:46.637Z,27.27
2018-12-30T04:40:14.463Z,24.63
2018-12-30T04:42:42.312Z,26.77
2018-12-30T04:45:10.158Z,28.40
2018-12-30T04:47:37.989Z,25.00
2018-12-30T04:50:05.906Z,24.80
2018-12-30T04:52:33.764Z,24.77
2018-12-30T04:55:01.633Z,26.37
2018-12-30T04:57:29.544Z,22.90
2018-12-30T04:59:57.524Z,23.30
2018-12-30T05:02:25.369Z,21.30
2018-12-30T05:04:53.206Z,26.03
2018-12-30T05:07:21.084Z,24.37
2018-12-30T05:09:48.960Z,24.10
2018-12-30T05:12:16.834Z,25.57
2018-12-30T05:14:44.629Z,23.80
2018-12-30T05:17:12.474Z,27.13
2018-12-30T05:19:40.379Z,25.80
2018-12-30T05:22:08.306Z,25.60
2018-12-30T05:24:36.149Z,24.83
2018-12-30T05:27:04.047Z,23.63
2018-12-30T05:29:31.864Z,22.20
2018-12-30T05:32:01.269Z,24.20
2018-12-30T05:34:29.142Z,23.13
2018-12-30T05:36:57.137Z,24.87
2018-12-30T05:39:25.245Z,26.67
2018-12-30T05:41:53.083Z,24.13
2018-12-30T05:44:20.967Z,24.17
2018-12-30T05:46:48.818Z,22.50
2018-12-30T05:49:16.725Z,25.70
2018-12-30T05:51:44.610Z,23.80
2018-12-30T05:54:12.483Z,23.63
2018-12-30T05:56:40.625Z,22.60
2018-12-30T05:59:08.518Z,24.70
2018-12-30T06:01:36.404Z,20.33
2018-12-30T06:04:04.522Z,23.63
2018-12-30T06:06:32.658Z,23.63
2018-12-30T06:09:00.530Z,26.67
2018-12-30T06:11:28.399Z,24.53
2018-12-30T06:13:56.322Z,23.53
2018-12-30T06:16:24.187Z,23.60
2018-12-30T06:18:52.028Z,22.87
2018-12-30T06:21:19.828Z,22.47
2018-12-30T06:23:47.671Z,24.03
2018-12-30T06:26:15.539Z,21.43
2018-12-30T06:28:43.407Z,20.00
2018-12-30T06:31:11.202Z,22.47
2018-12-30T06:33:41.328Z,25.30
2018-12-30T06:36:09.280Z,23.33
2018-12-30T06:38:37.115Z,21.13
2018-12-30T06:41:04.977Z,25.07
2018-12-30T06:43:32.853Z,18.90
2018-12-30T06:46:00.687Z,19.00
2018-12-30T06:48:28.580Z,22.03
2018-12-30T06:50:56.462Z,24.00
2018-12-30T06:53:24.303Z,21.23
2018-12-30T06:55:52.181Z,21.40
2018-12-30T06:58:20.051Z,25.30
2018-12-30T07:00:48.236Z,20.10
2018-12-30T07:03:16.066Z,23.70
2018-12-30T07:05:43.884Z,20.80
2018-12-30T07:08:11.944Z,21.27
2018-12-30T07:10:39.781Z,22.37
2018-12-30T07:13:07.684Z,20.37
2018-12-30T07:15:35.552Z,19.33
2018-12-30T07:18:03.429Z,22.20
2018-12-30T07:20:31.280Z,24.20
2018-12-30T07:23:05.774Z,18.67
2018-12-30T07:25:28.781Z,20.80
2018-12-30T07:27:56.726Z,23.13
2018-12-30T07:30:24.630Z,22.30
2018-12-30T07:32:53.623Z,26.87
2018-12-30T07:35:21.499Z,20.90
2018-12-30T07:37:49.392Z,21.53
2018-12-30T07:40:17.288Z,20.97
2018-12-30T07:42:45.137Z,21.20
2018-12-30T07:45:13.292Z,19.43
2018-12-30T07:47:41.116Z,20.70
2018-12-30T07:50:08.982Z,19.23
2018-12-30T07:52:36.831Z,21.87
2018-12-30T07:55:04.729Z,19.00
2018-12-30T07:57:32.606Z,18.80
2018-12-30T08:00:00.504Z,19.07
2018-12-30T08:02:28.353Z,20.27
2018-12-30T08:04:56.224Z,26.30
2018-12-30T08:07:24.150Z,21.30
2018-12-30T08:09:52.278Z,19.80
2018-12-30T08:12:20.157Z,20.80
2018-12-30T08:14:47.998Z,19.57
2018-12-30T08:17:15.949Z,22.73
2018-12-30T08:19:43.769Z,19.17
2018-12-30T08:22:11.620Z,20.70
2018-12-30T08:24:39.500Z,19.83
2018-12-30T08:27:07.344Z,18.83
2018-12-30T08:29:35.169Z,17.63
2018-12-30T08:32:03.120Z,21.07
2018-12-30T08:34:30.960Z,18.93
2018-12-30T08:36:58.857Z,18.30
2018-12-30T08:39:26.723Z,19.90
2018-12-30T08:41:54.541Z,17.80
2018-12-30T08:44:22.398Z,22.13
2018-12-30T08:46:50.292Z,19.80
2018-12-30T08:49:18.171Z,18.10
2018-12-30T08:51:46.012Z,17.33
2018-12-30T08:54:15.570Z,19.03
2018-12-30T08:56:43.631Z,19.03
2018-12-30T08:59:11.485Z,14.70
2018-12-30T09:01:39.310Z,17.10
2018-12-30T09:04:07.143Z,17.50
2018-12-30T09:06:35.096Z,14.03
2018-12-30T09:09:03.361Z,21.07
2018-12-30T09:11:31.253Z,16.50
2018-12-30T09:13:59.345Z,15.10
2018-12-30T09:16:27.196Z,14.70
2018-12-30T09:18:55.043Z,16.57
2018-12-30T09:21:23.065Z,16.73
2018-12-30T09:23:50.905Z,17.03
2018-12-30T09:26:18.778Z,15.70
2018-12-30T09:28:46.725Z,15.17
2018-12-30T09:31:14.625Z,12.20
2018-12-30T09:33:42.565Z,13.90
2018-12-30T09:36:10.462Z,16.80
2018-12-30T09:38:38.308Z,13.17
2018-12-30T09:41:07.374Z,14.70
2018-12-30T09:43:35.529Z,15.77
2018-12-30T09:46:04.397Z,13.50
2018-12-30T09:48:33.963Z,12.80
2018-12-30T09:51:01.964Z,15.00
2018-12-30T09:53:29.804Z,13.93
2018-12-30T09:55:57.835Z,14.20
2018-12-30T09:58:25.854Z,16.20
2018-12-30T10:00:53.711Z,14.57
2018-12-30T10:03:21.933Z,13.33
2018-12-30T10:05:49.842Z,16.17
2018-12-30T10:08:17.812Z,13.97
2018-12-30T10:10:45.752Z,11.90
2018-12-30T10:13:14.155Z,12.10
2018-12-30T10:15:42.081Z,15.67
2018-12-30T10:18:10.135Z,16.13
2018-12-30T10:20:38.113Z,14.40
2018-12-30T10:23:05.985Z,12.73
2018-12-30T10:25:34.132Z,12.83
2018-12-30T10:28:02.050Z,15.37
2018-12-30T10:30:29.992Z,13.60
2018-12-30T10:32:58.932Z,15.93
2018-12-30T10:35:28.584Z,15.80
2018-12-30T10:37:56.733Z,13.70
2018-12-30T10:40:24.626Z,13.77
2018-12-30T10:42:52.493Z,12.23
2018-12-30T10:45:20.394Z,15.40
2018-12-30T10:47:48.280Z,12.37
2018-12-30T10:50:16.251Z,13.37
2018-12-30T10:52:44.733Z,11.20
2018-12-30T10:55:12.803Z,11.93
2018-12-30T10:57:40.709Z,12.20
2018-12-30T11:00:08.663Z,12.33
2018-12-30T11:02:36.555Z,15.10
2018-12-30T11:05:04.522Z,12.83
2018-12-30T11:07:32.417Z,11.47
2018-12-30T11:10:00.401Z,13.37
2018-12-30T11:12:28.569Z,15.23
2018-12-30T11:14:56.472Z,15.10
2018-12-30T11:17:24.322Z,13.37
2018-12-30T11:19:53.349Z,11.93
2018-12-30T11:22:21.233Z,15.17
2018-12-30T11:24:49.079Z,12.50
2018-12-30T11:27:17.047Z,14.53
2018-12-30T11:29:44.966Z,13.13
2018-12-30T11:32:13.218Z,13.50
2018-12-30T11:34:42.894Z,16.47
2018-12-30T11:37:11.004Z,13.43
2018-12-30T11:39:38.858Z,12.70
2018-12-30T11:42:06.826Z,16.17
2018-12-30T11:44:35.088Z,16.23
2018-12-30T11:47:03.447Z,14.37
2018-12-30T11:49:31.570Z,11.23
2018-12-30T11:51:59.588Z,14.80
2018-12-30T11:54:27.830Z,13.37
2018-12-30T11:56:55.858Z,13.40
2018-12-30T11:59:23.868Z,16.47
2018-12-30T12:01:51.831Z,14.63
2018-12-30T12:04:19.809Z,14.70
2018-12-30T12:06:49.011Z,15.07
2018-12-30T12:09:17.358Z,16.27
2018-12-30T12:11:45.803Z,12.87
2018-12-30T12:14:13.712Z,13.97
2018-12-30T12:16:41.623Z,12.10
2018-12-30T12:19:09.550Z,11.00
2018-12-30T12:21:37.507Z,14.33
2018-12-30T12:24:05.404Z,12.80
2018-12-30T12:26:33.271Z,14.10
2018-12-30T12:29:01.129Z,12.57
2018-12-30T12:31:29.050Z,12.07
2018-12-30T12:33:57.059Z,13.43
2018-12-30T12:36:25.259Z,14.03
2018-12-30T12:38:53.269Z,12.17
2018-12-30T12:41:21.272Z,12.23
2018-12-30T12:43:49.515Z,13.73
2018-12-30T12:46:17.381Z,9.77
2018-12-30T12:48:45.317Z,11.23
2018-12-30T12:51:13.250Z,12.33
2018-12-30T12:53:41.192Z,12.40
2018-12-30T12:56:09.369Z,11.80
2018-12-30T12:58:37.476Z,13.37
2018-12-30T13:01:05.582Z,18.80
2018-12-30T13:03:33.569Z,15.60
2018-12-30T13:06:02.572Z,13.57
2018-12-30T13:08:30.475Z,11.60
2018-12-30T13:10:58.500Z,13.60
2018-12-30T13:13:26.307Z,12.47
2018-12-30T13:15:54.567Z,13.90
2018-12-30T13:18:22.529Z,18.57
2018-12-30T13:20:50.397Z,12.97
2018-12-30T13:23:18.441Z,14.87
2018-12-30T13:25:46.339Z,17.10
2018-12-30T13:28:14.316Z,16.10
2018-12-30T13:30:42.247Z,13.10
2018-12-30T13:33:10.124Z,13.33
2018-12-30T13:35:43.301Z,13.50
2018-12-30T13:38:07.695Z,14.83
2018-12-30T13:40:35.520Z,13.80
2018-12-30T13:43:03.404Z,12.70
2018-12-30T13:45:32.307Z,13.47
2018-12-30T13:48:01.073Z,13.27
2018-12-30T13:50:28.923Z,13.73
2018-12-30T13:52:56.890Z,15.57
2018-12-30T13:55:24.729Z,13.07
2018-12-30T13:57:52.611Z,15.30
2018-12-30T14:00:20.444Z,15.20
2018-12-30T14:02:48.286Z,12.63
2018-12-30T14:05:16.197Z,13.53
2018-12-30T14:07:44.037Z,11.07
2018-12-30T14:10:11.885Z,14.10
2018-12-30T14:12:39.759Z,16.37
2018-12-30T14:15:07.771Z,17.53
2018-12-30T14:17:35.686Z,16.97
2018-12-30T14:20:03.747Z,15.53
2018-12-30T14:22:31.615Z,16.90
2018-12-30T14:24:59.447Z,15.60
2018-12-30T14:27:27.272Z,15.27
2018-12-30T14:29:55.094Z,14.53
2018-12-30T14:32:22.991Z,15.73
2018-12-30T14:34:50.921Z,15.27
2018-12-30T14:37:18.793Z,17.00
2018-12-30T14:39:46.740Z,17.13
2018-12-30T14:42:14.597Z,16.07
2018-12-30T14:44:42.587Z,18.93
2018-12-30T14:47:10.498Z,17.43
2018-12-30T14:49:39.339Z,17.10
2018-12-30T14:52:07.191Z,14.50
2018-12-30T14:54:35.020Z,16.23
2018-12-30T14:57:02.905Z,18.53
2018-12-30T14:59:30.718Z,18.70
2018-12-30T15:01:58.569Z,19.00
2018-12-30T15:04:26.435Z,15.57
2018-12-30T15:06:54.313Z,17.87
2018-12-30T15:09:23.016Z,16.93
2018-12-30T15:11:51.048Z,15.73
2018-12-30T15:14:18.918Z,20.57
2018-12-30T15:16:46.998Z,16.90
2018-12-30T15:19:14.854Z,20.03
2018-12-30T15:21:42.722Z,18.20
2018-12-30T15:24:10.632Z,15.53
2018-12-30T15:26:38.488Z,16.40
2018-12-30T15:29:06.517Z,15.90
2018-12-30T15:31:34.408Z,19.03
2018-12-30T15:34:02.288Z,21.70
2018-12-30T15:36:30.185Z,15.20
2018-12-30T15:38:58.041Z,17.10
2018-12-30T15:41:25.834Z,19.27
2018-12-30T15:43:53.662Z,16.17
2018-12-30T15:46:21.564Z,16.23
2018-12-30T15:48:49.425Z,18.03
2018-12-30T15:51:17.308Z,17.43
2018-12-30T15:53:45.128Z,16.93
2018-12-30T15:56:13.170Z,18.67
2018-12-30T15:58:40.986Z,18.03
2018-12-30T16:01:08.824Z,15.43
2018-12-30T16:03:36.656Z,14.47
2018-12-30T16:06:04.817Z,14.50
2018-12-30T16:08:32.647Z,13.87
2018-12-30T16:11:00.531Z,18.70
2018-12-30T16:13:28.612Z,16.40
2018-12-30T16:15:56.403Z,15.87
2018-12-30T16:18:24.352Z,18.13
2018-12-30T16:20:52.418Z,17.20
2018-12-30T16:23:20.394Z,16.50
2018-12-30T16:25:49.345Z,19.07
2018-12-30T16:28:17.270Z,17.83
2018-12-30T16:30:45.165Z,13.17
2018-12-30T16:33:13.077Z,18.80
2018-12-30T16:35:40.890Z,17.30
2018-12-30T16:38:08.769Z,15.47
2018-12-30T16:40:36.692Z,18.77
2018-12-30T16:43:04.545Z,24.10
2018-12-30T16:45:32.410Z,18.03
2018-12-30T16:48:00.241Z,16.83
2018-12-30T16:50:28.111Z,15.83
2018-12-30T16:52:55.983Z,18.03
2018-12-30T16:55:23.893Z,12.63
2018-12-30T16:57:52.284Z,13.20
2018-12-30T17:00:20.271Z,15.17
2018-12-30T17:02:48.139Z,15.33
2018-12-30T17:05:16.012Z,14.47
2018-12-30T17:07:43.811Z,14.60
2018-12-30T17:10:11.709Z,13.20
2018-12-30T17:12:39.643Z,14.97
2018-12-30T17:15:07.830Z,15.23
2018-12-30T17:17:35.709Z,12.90
2018-12-30T17:20:03.904Z,15.00
2018-12-30T17:22:31.764Z,14.83
2018-12-30T17:24:59.651Z,13.33
2018-12-30T17:27:27.565Z,15.17
2018-12-30T17:29:58.551Z,14.93
2018-12-30T17:32:26.464Z,17.40
2018-12-30T17:34:54.851Z,14.67
2018-12-30T17:37:22.726Z,14.80
2018-12-30T17:39:50.555Z,14.97
2018-12-30T17:42:18.488Z,16.20
2018-12-30T17:44:46.472Z,15.57
2018-12-30T17:47:14.410Z,14.47
2018-12-30T17:49:42.265Z,13.47
2018-12-30T17:52:10.157Z,11.83
2018-12-30T17:54:38.133Z,13.93
2018-12-30T17:57:06.071Z,15.97
2018-12-30T17:59:33.950Z,16.60
2018-12-30T18:02:01.798Z,23.83
2018-12-30T18:04:29.693Z,15.97
2018-12-30T18:07:00.510Z,13.70
2018-12-30T18:09:28.385Z,14.00
2018-12-30T18:11:56.228Z,13.67
2018-12-30T18:14:24.093Z,14.13
2018-12-30T18:16:51.998Z,16.83
2018-12-30T18:19:19.975Z,19.20
2018-12-30T18:21:47.881Z,18.80
2018-12-30T18:24:15.827Z,15.70
2018-12-30T18:26:43.791Z,12.97
2018-12-30T18:29:11.643Z,15.07
2018-12-30T18:31:41.751Z,15.50
2018-12-30T18:34:15.043Z,14.20
2018-12-30T18:36:43.859Z,15.30
2018-12-30T18:39:11.814Z,12.70
2018-12-30T18:41:40.691Z,13.67
2018-12-30T18:44:08.823Z,16.97
2018-12-30T18:46:36.877Z,15.03
2018-12-30T18:49:04.763Z,15.47
2018-12-30T18:51:32.939Z,13.53
2018-12-30T18:54:02.895Z,12.13
2018-12-30T18:56:30.947Z,18.37
2018-12-30T18:58:58.877Z,12.57
2018-12-30T19:01:26.886Z,12.73
2018-12-30T19:03:54.821Z,14.10
2018-12-30T19:06:22.940Z,14.10
2018-12-30T19:08:50.819Z,14.27
2018-12-30T19:11:18.729Z,12.83
2018-12-30T19:13:46.606Z,18.63
2018-12-30T19:16:14.434Z,15.80
2018-12-30T19:18:42.249Z,15.10
2018-12-30T19:21:10.173Z,15.10
2018-12-30T19:23:37.992Z,15.80
2018-12-30T19:26:05.876Z,19.10
2018-12-30T19:28:36.952Z,16.07
2018-12-30T19:31:04.986Z,14.97
2018-12-30T19:33:33.249Z,14.17
2018-12-30T19:36:01.124Z,14.93
2018-12-30T19:38:28.967Z,14.80
2018-12-30T19:40:56.791Z,16.00
2018-12-30T19:43:24.662Z,14.27
2018-12-30T19:45:52.827Z,16.37
2018-12-30T19:48:20.792Z,13.93
2018-12-30T19:50:48.635Z,17.07
2018-12-30T19:53:16.496Z,20.47
2018-12-30T19:55:44.318Z,16.17
2018-12-30T19:58:12.171Z,13.10
2018-12-30T20:00:40.052Z,15.10
2018-12-30T20:03:07.945Z,15.90
2018-12-30T20:05:35.845Z,14.20
2018-12-30T20:08:03.683Z,15.27
2018-12-30T20:10:31.505Z,14.53
2018-12-30T20:12:59.607Z,14.37
2018-12-30T20:15:27.492Z,19.17
2018-12-30T20:17:55.318Z,13.90
2018-12-30T20:20:23.148Z,13.53
2018-12-30T20:22:51.065Z,12.33
2018-12-30T20:25:19.012Z,16.20
2018-12-30T20:27:46.956Z,15.70
2018-12-30T20:30:14.793Z,15.20
2018-12-30T20:32:42.633Z,16.77
2018-12-30T20:35:10.480Z,12.90
2018-12-30T20:37:38.340Z,18.70
2018-12-30T20:40:06.309Z,14.97
2018-12-30T20:42:34.192Z,13.20
2018-12-30T20:45:02.207Z,18.50
2018-12-30T20:47:30.036Z,15.87
2018-12-30T20:49:57.924Z,13.70
2018-12-30T20:52:25.784Z,12.80
2018-12-30T20:54:53.609Z,14.80
2018-12-30T20:57:21.477Z,14.80
2018-12-30T20:59:49.369Z,15.80
2018-12-30T21:02:17.258Z,15.83
2018-12-30T21:04:45.103Z,13.80
2018-12-30T21:07:13.020Z,13.70
2018-12-30T21:09:40.889Z,15.10
2018-12-30T21:12:08.711Z,15.57
2018-12-30T21:14:36.561Z,14.73
2018-12-30T21:17:04.464Z,12.90
2018-12-30T21:19:32.417Z,14.53
2018-12-30T21:22:00.267Z,14.77
2018-12-30T21:24:28.267Z,14.57
2018-12-30T21:26:56.213Z,14.70
2018-12-30T21:29:24.138Z,15.17
2018-12-30T21:31:52.114Z,12.90
2018-12-30T21:34:20.016Z,19.20
2018-12-30T21:36:47.875Z,21.60
2018-12-30T21:39:15.872Z,14.40
2018-12-30T21:41:43.821Z,15.23
2018-12-30T21:44:11.702Z,15.03
2018-12-30T21:46:39.636Z,15.90
2018-12-30T21:49:07.502Z,16.70
2018-12-30T21:51:35.436Z,18.20
2018-12-30T21:54:03.248Z,14.37
2018-12-30T21:56:31.178Z,18.27
2018-12-30T21:58:59.003Z,16.20
2018-12-30T22:01:26.871Z,15.70
2018-12-30T22:03:54.778Z,19.07
2018-12-30T22:06:22.645Z,17.10
2018-12-30T22:08:50.538Z,14.90
2018-12-30T22:11:18.655Z,17.30
2018-12-30T22:13:46.572Z,16.00
2018-12-30T22:16:14.449Z,16.33
2018-12-30T22:18:42.406Z,16.43
2018-12-30T22:21:10.371Z,16.27
2018-12-30T22:23:38.500Z,15.90
2018-12-30T22:26:06.367Z,22.03
2018-12-30T22:28:34.189Z,17.00
2018-12-30T22:31:01.959Z,16.40
2018-12-30T22:33:29.859Z,18.40
2018-12-30T22:35:57.672Z,19.20
2018-12-30T22:38:25.564Z,19.27
2018-12-30T22:40:53.402Z,16.43
2018-12-30T22:43:21.427Z,15.97
2018-12-30T22:45:49.407Z,16.97
2018-12-30T22:48:17.341Z,19.77
2018-12-30T22:50:45.239Z,20.00
2018-12-30T22:53:13.304Z,15.83
2018-12-30T22:55:41.227Z,18.40
2018-12-30T22:58:09.174Z,20.03
2018-12-30T23:00:57.780Z,17.00
2018-12-30T23:03:25.610Z,20.77
2018-12-30T23:05:54.449Z,22.57
2018-12-30T23:08:22.348Z,18.40
2018-12-30T23:10:54.273Z,21.10
2018-12-30T23:13:22.143Z,17.47
2018-12-30T23:15:50.168Z,17.80
2018-12-30T23:18:17.995Z,19.60
2018-12-30T23:20:45.872Z,17.20
2018-12-30T23:23:13.846Z,21.73
2018-12-30T23:25:41.682Z,21.83
2018-12-30T23:28:09.533Z,16.60
2018-12-30T23:30:37.387Z,22.43
2018-12-30T23:33:05.217Z,21.07
2018-12-30T23:35:33.136Z,20.73
2018-12-30T23:38:00.964Z,19.57
2018-12-30T23:40:28.813Z,20.60
2018-12-30T23:42:56.732Z,19.63
2018-12-30T23:45:25.418Z,21.27
2018-12-30T23:47:53.269Z,20.40
2018-12-30T23:50:21.224Z,22.90
2018-12-30T23:52:49.200Z,19.10
2018-12-30T23:55:17.079Z,22.90
2018-12-30T23:57:44.906Z,19.77
